SABE/AEP METAR and TAF weather

Enter ICAO airport designator
Station Type Date Time Source
SABE METAR 2022/01/26 08:00 UTC NOAA

SABE 260800Z 27003KT 210V310 9999 FEW015 BKN100 25/22 Q1007 NOSIG RMK PP000


Station Type Date Time Source
SABE Decoded METAR 2022/01/26 08:00 UTC NOAA

Aeroparque Bs. As. Aerodrome, Argentina (SABE) 34-34S 058-25W 6M
Jan 26, 2022 - 03:00 AM EST / 2022.01.26 0800 UTC
Wind: from the W (270 degrees) at 3 MPH (3 KT) (direction variable):0
Visibility: greater than 7 mile(s):0
Sky conditions: mostly cloudy
Temperature: 77 F (25 C)
Dew Point: 71 F (22 C)
Relative Humidity: 83%
Pressure (altimeter): 29.74 in. Hg (1007 hPa)
ob: SABE 260800Z 27003KT 210V310 9999 FEW015 BKN100 25/22 Q1007 NOSIG RMK PP000
cycle: 8

Station Type Date Time Source
SABE TAF 2022/01/26 06:39 UTC NOAA

TAF SABE 260500Z 2606/2706 36005KT 9000 -SHRA BKN050 TX27/2619Z TN23/2609Z
BECMG 2614/2417 09015G25KT 5000 TSRA BKN035 FEW045CB
BECMG 2623/2701 9999 NSW SCT035

Example: see airport list